createdAt,value
2022-09-01T00:09:32.306Z,16.3
2022-09-01T00:29:34.284Z,16.1
2022-09-01T00:39:35.310Z,16.1
2022-09-01T00:49:35.587Z,16.1
2022-09-01T00:59:35.888Z,15.9
2022-09-01T01:09:36.800Z,15.6
2022-09-01T01:19:38.971Z,15.3
2022-09-01T01:29:37.984Z,15.2
2022-09-01T01:39:38.253Z,15.1
2022-09-01T01:49:38.400Z,15.1
2022-09-01T01:59:38.529Z,15
2022-09-01T02:09:39.401Z,14.8
2022-09-01T02:19:39.763Z,14.7
2022-09-01T02:29:41.864Z,14.5
2022-09-01T02:39:41.525Z,14.4
2022-09-01T02:49:42.100Z,14.3
2022-09-01T02:59:43.857Z,14.1
2022-09-01T03:09:43.988Z,14
2022-09-01T03:19:44.098Z,14
2022-09-01T03:29:44.680Z,13.9
2022-09-01T03:39:45.478Z,13.9
2022-09-01T03:49:46.559Z,14
2022-09-01T03:59:47.590Z,14
2022-09-01T04:09:47.740Z,14
2022-09-01T04:19:48.332Z,13.8
2022-09-01T04:29:49.353Z,13.6
2022-09-01T04:39:53.777Z,13.5
2022-09-01T04:49:50.824Z,13.5
2022-09-01T04:59:51.792Z,13.6
2022-09-01T05:09:52.426Z,13.8
2022-09-01T05:19:53.116Z,13.9
2022-09-01T05:29:53.491Z,13.9
2022-09-01T05:39:54.258Z,14.1
2022-09-01T05:49:54.472Z,14.3
2022-09-01T06:09:55.544Z,14.6
2022-09-01T06:19:56.481Z,14.8
2022-09-01T06:29:57.386Z,15.1
2022-09-01T06:39:57.706Z,15.5
2022-09-01T06:49:58.346Z,15.8
2022-09-01T06:59:58.832Z,16.2
2022-09-01T07:20:23.110Z,16.8
2022-09-01T07:30:01.015Z,17.2
2022-09-01T07:42:58.335Z,16.5
2022-09-01T08:00:03.234Z,18.4
2022-09-01T08:10:03.539Z,18.8
2022-09-01T08:20:04.000Z,19.1
2022-09-01T08:30:04.763Z,19.6
2022-09-01T08:40:05.567Z,20
2022-09-01T08:50:06.329Z,20.4
2022-09-01T09:00:06.529Z,20.8
2022-09-01T09:10:07.548Z,21.1
2022-09-01T09:20:08.848Z,21.4
2022-09-01T09:30:11.249Z,21.6
2022-09-01T09:40:09.997Z,21.8
2022-09-01T09:50:10.011Z,22.4
2022-09-01T10:00:10.326Z,22.2
2022-09-01T10:10:10.521Z,22.4
2022-09-01T10:10:32.334Z,22.4
2022-09-01T10:20:16.993Z,22.4
2022-09-01T10:30:19.479Z,22.7
2022-09-01T10:40:20.498Z,22.9
2022-09-01T10:50:18.094Z,22.8
2022-09-01T11:00:35.254Z,23.1
2022-09-01T11:10:31.184Z,23.7
2022-09-01T11:20:19.789Z,24.1
2022-09-01T11:30:20.549Z,24.5
2022-09-01T11:40:21.149Z,24.6
2022-09-01T11:50:21.216Z,25.1
2022-09-01T12:00:22.279Z,24.6
2022-09-01T12:10:22.498Z,25
2022-09-01T12:20:26.782Z,26
2022-09-01T12:30:24.259Z,26.1
2022-09-01T12:40:25.122Z,26.5
2022-09-01T13:00:26.371Z,27.4
2022-09-01T13:10:27.032Z,28.2
2022-09-01T13:20:27.142Z,27.9
2022-09-01T13:30:27.849Z,28.2
2022-09-01T13:40:28.434Z,28
2022-09-01T13:51:13.943Z,28
2022-09-01T14:10:30.376Z,27.9
2022-09-01T14:20:31.469Z,28.5
2022-09-01T14:30:31.957Z,28.3
2022-09-01T14:40:32.057Z,28
2022-09-01T14:50:32.875Z,28.1
2022-09-01T15:00:33.037Z,27.9
2022-09-01T15:10:33.294Z,27.6
2022-09-01T15:20:33.933Z,28.2
2022-09-01T15:30:34.419Z,27.9
2022-09-01T15:40:34.720Z,27.3
2022-09-01T15:50:35.623Z,27.2
2022-09-01T16:00:36.664Z,27.4
2022-09-01T16:10:37.502Z,27.1
2022-09-01T16:20:37.643Z,25.7
2022-09-01T16:30:38.658Z,24.9
2022-09-01T16:40:39.726Z,24.7
2022-09-01T16:50:40.647Z,24.4
2022-09-01T17:00:41.668Z,24.1
2022-09-01T17:10:42.613Z,23.8
2022-09-01T17:20:43.029Z,23.6
2022-09-01T17:30:44.851Z,23.5
2022-09-01T17:40:44.311Z,23.3
2022-09-01T18:00:44.942Z,22.9
2022-09-01T18:10:45.804Z,22.7
2022-09-01T18:20:46.898Z,22.5
2022-09-01T18:30:52.802Z,22.1
2022-09-01T18:40:48.090Z,21.9
2022-09-01T18:50:48.583Z,21.5
2022-09-01T19:00:52.186Z,21.1
2022-09-01T19:10:49.967Z,20.7
2022-09-01T19:20:50.083Z,20.3
2022-09-01T19:30:50.563Z,20
2022-09-01T19:50:51.251Z,19.6
2022-09-01T20:00:51.608Z,19.3
2022-09-01T20:10:56.152Z,19.1
2022-09-01T20:20:53.266Z,18.9
2022-09-01T20:30:53.878Z,18.7
2022-09-01T20:40:54.569Z,18.5
2022-09-01T20:50:54.687Z,18.3
2022-09-01T21:00:54.838Z,18.1
2022-09-01T21:10:55.253Z,17.9
2022-09-01T21:20:56.118Z,17.6
2022-09-01T21:30:56.644Z,17.4
2022-09-01T21:40:57.631Z,17.1
2022-09-01T21:50:58.685Z,16.9
2022-09-01T22:10:59.882Z,16.6
2022-09-01T22:21:00.803Z,16.5
2022-09-01T22:31:01.762Z,16.4
2022-09-01T22:41:02.736Z,16.2
2022-09-01T22:51:06.935Z,16.1
2022-09-01T23:01:04.201Z,16.2
2022-09-01T23:11:04.244Z,16.2
2022-09-01T23:21:05.336Z,16.1
2022-09-01T23:31:06.056Z,16
2022-09-01T23:41:06.915Z,16
2022-09-01T23:51:07.639Z,15.8
